Time;durP1;ratioP1;P1;durP2;ratioP2;P2;SDS_P1;SDS_P2;PMS_P1;PMS_P2;Temp;Humidity;BMP_temperature;BMP_pressure;BME280_temperature;BME280_humidity;BME280_pressure;Samples;Min_cycle;Max_cycle;Signal;HPM_P1;HPM_P2
2022/08/10 00:02:19;;;;;;;11.32;3.03;;;18.50;70.60;;;;;;6173853;23;20005;-93
2022/08/10 00:04:47;;;;;;;4.82;3.17;;;18.60;70.80;;;;;;6175401;23;20005;-94
2022/08/10 00:07:13;;;;;;;3.55;2.55;;;18.50;70.90;;;;;;6150262;23;20021;-94
2022/08/10 00:09:39;;;;;;;6.18;3.03;;;18.50;71.00;;;;;;6149876;23;20006;-94
2022/08/10 00:12:07;;;;;;;8.52;3.13;;;18.50;71.20;;;;;;6174457;23;20073;-93
2022/08/10 00:14:33;;;;;;;5.30;2.88;;;18.50;71.10;;;;;;6152329;23;20422;-93
2022/08/10 00:16:59;;;;;;;8.57;3.15;;;18.40;71.20;;;;;;6147602;23;20113;-95
2022/08/10 00:19:24;;;;;;;3.97;2.92;;;18.50;71.40;;;;;;6150781;23;20065;-92
2022/08/10 00:21:55;;;;;;;11.18;3.47;;;18.40;71.60;;;;;;6149609;23;20016;-92
2022/08/10 00:24:23;;;;;;;11.73;2.90;;;18.30;71.60;;;;;;6152937;23;20005;-93
2022/08/10 00:26:57;;;;;;;11.23;3.05;;;18.30;72.10;;;;;;6152842;23;20009;-95
2022/08/10 00:29:24;;;;;;;3.50;2.97;;;18.20;72.50;;;;;;6151569;23;20422;-93
2022/08/10 00:31:52;;;;;;;4.82;3.00;;;18.20;72.80;;;;;;6152293;23;20017;-92
2022/08/10 00:34:19;;;;;;;6.72;2.78;;;18.20;73.00;;;;;;6125620;23;20093;-93
2022/08/10 00:36:46;;;;;;;5.47;3.30;;;18.10;73.30;;;;;;6153455;23;20013;-93
2022/08/10 00:39:13;;;;;;;7.85;3.15;;;18.00;73.40;;;;;;6152725;23;20013;-92
2022/08/10 00:41:39;;;;;;;5.03;3.17;;;18.00;73.80;;;;;;6151777;23;20025;-95
2022/08/10 00:44:05;;;;;;;4.47;2.70;;;17.90;74.10;;;;;;6149075;23;20013;-94
2022/08/10 00:46:37;;;;;;;3.45;2.58;;;17.90;74.30;;;;;;6150657;23;20017;-96
2022/08/10 00:49:02;;;;;;;5.13;3.00;;;17.90;74.60;;;;;;6149817;23;20013;-92
2022/08/10 00:51:30;;;;;;;5.35;3.30;;;17.90;74.40;;;;;;6151170;23;20001;-94
2022/08/10 00:53:57;;;;;;;13.10;3.25;;;17.90;74.70;;;;;;6129413;23;20013;-93
2022/08/10 00:56:52;;;;;;;4.45;3.00;;;17.90;74.90;;;;;;6152352;23;20056;-94
2022/08/10 00:59:18;;;;;;;5.05;3.08;;;17.80;75.20;;;;;;6149933;23;20005;-93
2022/08/10 01:01:47;;;;;;;6.60;3.10;;;17.80;75.60;;;;;;6149450;23;20060;-95
2022/08/10 01:04:14;;;;;;;13.30;3.15;;;17.80;75.90;;;;;;6152151;23;20006;-91
2022/08/10 01:06:57;;;;;;;3.75;2.58;;;17.70;76.20;;;;;;6149799;23;20082;-93
2022/08/10 01:09:53;;;;;;;4.93;2.88;;;17.70;76.60;;;;;;6152464;23;20033;-93
2022/08/10 01:12:33;;;;;;;5.18;2.90;;;17.70;77.50;;;;;;6150193;23;19993;-95
2022/08/10 01:15:47;;;;;;;5.97;2.70;;;17.70;76.60;;;;;;6174132;23;20009;-92
2022/08/10 01:18:33;;;;;;;4.85;2.97;;;17.70;76.50;;;;;;6152833;23;20014;-94
2022/08/10 01:21:31;;;;;;;5.72;3.00;;;17.70;76.70;;;;;;6151836;23;20010;-95
2022/08/10 01:24:20;;;;;;;9.25;2.95;;;17.60;77.10;;;;;;6154754;23;20006;-92
2022/08/10 01:27:02;;;;;;;3.83;3.00;;;17.60;77.30;;;;;;6151152;23;20002;-94
2022/08/10 01:30:01;;;;;;;3.47;2.85;;;17.50;77.80;;;;;;6152926;23;20009;-93
2022/08/10 01:33:04;;;;;;;4.10;3.15;;;17.50;78.00;;;;;;6140086;23;20013;-93
2022/08/10 01:35:34;;;;;;;4.70;3.00;;;17.40;78.40;;;;;;6152374;23;20017;-94
2022/08/10 01:38:13;;;;;;;8.93;2.83;;;17.40;78.70;;;;;;6152541;23;20009;-93
2022/08/10 01:40:53;;;;;;;5.07;2.88;;;17.40;78.90;;;;;;6178397;23;20025;-93
2022/08/10 01:43:20;;;;;;;5.07;2.60;;;17.30;79.10;;;;;;6178172;23;20002;-95
2022/08/10 01:45:53;;;;;;;8.90;3.03;;;17.30;79.30;;;;;;6177923;23;20064;-95
2022/08/10 01:48:41;;;;;;;8.30;2.60;;;17.20;79.40;;;;;;6154168;23;20016;-92
2022/08/10 01:51:16;;;;;;;6.57;3.10;;;17.20;79.60;;;;;;6170333;23;20057;-92
2022/08/10 01:53:52;;;;;;;6.05;2.83;;;17.20;79.90;;;;;;6153092;23;20005;-93
2022/08/10 01:56:20;;;;;;;5.80;3.00;;;17.20;80.20;;;;;;6152303;23;20005;-93
2022/08/10 01:58:53;;;;;;;3.58;3.03;;;17.10;80.40;;;;;;6153157;23;20006;-93
2022/08/10 02:01:23;;;;;;;5.63;2.95;;;17.00;80.70;;;;;;6153961;23;20057;-93
2022/08/10 02:04:01;;;;;;;8.57;2.83;;;17.00;81.20;;;;;;6178344;23;20005;-94
2022/08/10 02:06:51;;;;;;;3.88;3.10;;;16.90;81.40;;;;;;6153469;23;20009;-92
2022/08/10 02:09:25;;;;;;;7.25;3.13;;;16.80;81.70;;;;;;6150875;23;20386;-93
2022/08/10 02:11:55;;;;;;;9.65;3.08;;;16.90;82.00;;;;;;6152729;23;19997;-94
2022/08/10 02:14:22;;;;;;;6.25;2.80;;;16.90;82.00;;;;;;6152948;23;20041;-93
2022/08/10 02:16:54;;;;;;;4.72;2.90;;;16.90;82.10;;;;;;6172813;23;20066;-92
2022/08/10 02:19:24;;;;;;;5.63;2.70;;;16.90;82.20;;;;;;6174585;23;20016;-95
2022/08/10 02:21:54;;;;;;;3.70;2.60;;;16.90;82.40;;;;;;6153779;23;20002;-94
2022/08/10 02:24:23;;;;;;;4.93;2.67;;;16.80;82.50;;;;;;6152884;23;20013;-93
2022/08/10 02:26:50;;;;;;;5.25;2.97;;;16.80;83.00;;;;;;6152121;23;20005;-92
2022/08/10 02:33:05;;;;;;;6.32;3.25;;;16.70;83.40;;;;;;6179389;23;20041;-94
2022/08/10 02:35:33;;;;;;;6.32;3.10;;;16.70;84.00;;;;;;6176697;23;20016;-94
2022/08/10 02:38:07;;;;;;;8.57;2.90;;;16.60;84.30;;;;;;6154666;23;20513;-92
2022/08/10 02:40:42;;;;;;;4.28;2.92;;;16.60;84.60;;;;;;6179137;23;20027;-94
2022/08/10 02:43:11;;;;;;;6.05;3.15;;;16.50;85.10;;;;;;6155841;23;20014;-93
2022/08/10 02:46:06;;;;;;;4.93;2.75;;;16.50;85.40;;;;;;6150075;23;20016;-92
2022/08/10 02:48:45;;;;;;;4.75;2.80;;;16.40;85.90;;;;;;6153868;23;20020;-91
2022/08/10 02:51:20;;;;;;;8.63;2.90;;;16.40;86.30;;;;;;6152436;23;20013;-92
2022/08/10 02:53:57;;;;;;;13.00;3.08;;;16.30;86.50;;;;;;6129606;23;20017;-91
2022/08/10 02:56:45;;;;;;;4.55;2.97;;;16.30;87.80;;;;;;6155149;23;20053;-93
2022/08/10 02:59:18;;;;;;;4.40;3.42;;;16.30;87.50;;;;;;6149087;23;20032;-94
2022/08/10 03:01:49;;;;;;;6.55;2.80;;;16.30;88.10;;;;;;6177400;23;20009;-94
2022/08/10 03:04:23;;;;;;;3.42;2.88;;;16.30;88.30;;;;;;6178430;23;20021;-93
2022/08/10 03:07:02;;;;;;;4.45;2.72;;;16.30;88.50;;;;;;6129152;23;20006;-93
2022/08/10 03:09:33;;;;;;;5.78;3.20;;;16.30;88.90;;;;;;6169668;23;20017;-94
2022/08/10 03:12:05;;;;;;;6.38;3.70;;;16.30;89.20;;;;;;6128464;23;20009;-93
2022/08/10 03:14:33;;;;;;;4.03;3.00;;;16.30;88.90;;;;;;6153119;23;20023;-95
2022/08/10 03:17:03;;;;;;;3.70;2.75;;;16.30;89.10;;;;;;6153315;23;20006;-94
2022/08/10 03:19:35;;;;;;;5.47;3.28;;;16.30;89.50;;;;;;6150151;23;20022;-93
2022/08/10 03:25:48;;;;;;;8.38;3.00;;;16.20;90.00;;;;;;6125344;23;20066;-95
2022/08/10 03:28:16;;;;;;;7.90;3.22;;;16.10;90.10;;;;;;6152360;23;20001;-94
2022/08/10 03:30:47;;;;;;;5.93;3.25;;;16.10;90.30;;;;;;6152659;23;20025;-95
2022/08/10 03:33:15;;;;;;;9.17;2.90;;;16.00;90.40;;;;;;6152019;23;20037;-95
2022/08/10 03:35:43;;;;;;;6.78;2.83;;;16.00;90.60;;;;;;6151642;23;20256;-96
2022/08/10 03:38:09;;;;;;;9.75;3.67;;;16.00;90.70;;;;;;6153027;23;20434;-95
2022/08/10 03:40:37;;;;;;;3.33;2.70;;;16.00;90.90;;;;;;6172873;23;20015;-94
2022/08/10 03:43:06;;;;;;;9.10;3.28;;;16.00;91.00;;;;;;6128485;23;20040;-94
2022/08/10 03:45:33;;;;;;;6.50;3.20;;;15.90;91.20;;;;;;6153192;23;20037;-94
2022/08/10 03:48:06;;;;;;;6.97;3.30;;;15.80;91.50;;;;;;6176969;23;20012;-95
2022/08/10 03:50:39;;;;;;;7.30;2.93;;;15.90;91.60;;;;;;6152203;23;20036;-92
2022/08/10 03:53:07;;;;;;;9.68;3.42;;;15.90;91.60;;;;;;6176444;23;20006;-94
2022/08/10 03:55:44;;;;;;;4.85;3.50;;;15.80;91.70;;;;;;6152168;23;20010;-94
2022/08/10 03:58:12;;;;;;;4.63;3.10;;;15.80;91.80;;;;;;6174460;23;20009;-95
2022/08/10 04:00:42;;;;;;;8.27;3.22;;;15.80;92.00;;;;;;6150866;23;20093;-94
2022/08/10 04:03:08;;;;;;;6.20;3.70;;;15.80;92.10;;;;;;6151856;23;20009;-96
2022/08/10 04:05:35;;;;;;;9.38;3.40;;;15.80;92.30;;;;;;6151363;23;20001;-93
2022/08/10 04:08:05;;;;;;;3.38;2.90;;;15.80;92.50;;;;;;6152416;23;20013;-94
2022/08/10 04:10:31;;;;;;;5.50;3.67;;;15.80;92.60;;;;;;6138634;23;20037;-87
2022/08/10 04:12:57;;;;;;;6.82;3.45;;;15.80;92.80;;;;;;6130224;23;20017;-89
2022/08/10 04:15:25;;;;;;;4.82;2.78;;;15.80;92.90;;;;;;6130121;23;20048;-88
2022/08/10 04:17:51;;;;;;;5.90;3.20;;;15.80;93.20;;;;;;6129142;23;20087;-88
2022/08/10 04:20:36;;;;;;;4.70;3.10;;;15.70;93.20;;;;;;6129835;23;20502;-87
2022/08/10 04:23:07;;;;;;;9.27;3.17;;;15.70;93.40;;;;;;6130261;23;20349;-89
2022/08/10 04:25:34;;;;;;;13.38;5.00;;;15.70;93.50;;;;;;6154607;23;20008;-90
2022/08/10 04:28:00;;;;;;;5.90;3.17;;;15.70;93.60;;;;;;6129422;23;20056;-89
2022/08/10 04:30:28;;;;;;;5.32;2.80;;;15.70;93.80;;;;;;6156229;23;20010;-88
2022/08/10 04:32:55;;;;;;;9.10;3.28;;;15.80;93.90;;;;;;6130022;23;20014;-89
2022/08/10 04:35:25;;;;;;;7.00;3.42;;;15.80;94.00;;;;;;6155947;23;20010;-89
2022/08/10 04:37:52;;;;;;;4.95;3.45;;;15.80;94.20;;;;;;6154764;23;20051;-89
2022/08/10 04:40:19;;;;;;;6.38;3.15;;;15.80;94.10;;;;;;6130337;23;20017;-89
2022/08/10 04:42:46;;;;;;;10.27;3.55;;;15.90;94.10;;;;;;6130767;23;20009;-89
2022/08/10 04:45:15;;;;;;;6.03;3.00;;;16.00;94.10;;;;;;6154625;23;20001;-90
2022/08/10 04:47:41;;;;;;;6.65;3.42;;;16.20;93.90;;;;;;6155457;23;20010;-88
2022/08/10 04:50:07;;;;;;;7.28;2.97;;;16.40;93.70;;;;;;6130619;23;20068;-88
2022/08/10 04:52:32;;;;;;;10.68;2.75;;;16.50;93.20;;;;;;6156352;23;20307;-89
2022/08/10 04:54:58;;;;;;;4.68;2.60;;;16.60;93.00;;;;;;6131867;23;20024;-88
2022/08/10 04:57:24;;;;;;;4.90;3.20;;;16.60;92.80;;;;;;6157093;23;20010;-89
2022/08/10 04:59:49;;;;;;;8.63;3.22;;;16.70;92.60;;;;;;6132588;23;20029;-90
2022/08/10 05:02:15;;;;;;;5.47;3.10;;;16.70;92.60;;;;;;6132699;23;20012;-89
2022/08/10 05:04:41;;;;;;;4.65;3.03;;;16.80;92.50;;;;;;6132109;23;20029;-91
2022/08/10 05:07:09;;;;;;;4.93;3.17;;;16.80;92.30;;;;;;6132620;23;20002;-88
2022/08/10 05:09:37;;;;;;;3.67;2.95;;;17.00;92.30;;;;;;6132410;23;20059;-90
2022/08/10 05:12:03;;;;;;;10.13;3.67;;;17.00;92.10;;;;;;6131938;23;20010;-90
2022/08/10 05:14:28;;;;;;;8.60;3.00;;;17.10;91.90;;;;;;6131534;23;20068;-90
2022/08/10 05:16:54;;;;;;;5.18;3.00;;;17.20;91.80;;;;;;6156488;23;20018;-89
2022/08/10 05:19:20;;;;;;;7.28;2.85;;;17.40;91.70;;;;;;6156627;23;20070;-91
2022/08/10 05:21:45;;;;;;;8.85;3.20;;;17.50;91.40;;;;;;6156809;23;20001;-90
2022/08/10 05:24:11;;;;;;;8.18;3.25;;;17.60;91.10;;;;;;6156089;23;20478;-88
2022/08/10 05:27:02;;;;;;;7.93;3.13;;;17.70;90.70;;;;;;6131698;23;20005;-89
2022/08/10 05:29:28;;;;;;;4.57;3.00;;;17.80;90.70;;;;;;6132219;23;20010;-89
2022/08/10 05:31:54;;;;;;;3.78;2.80;;;17.90;90.50;;;;;;6132142;23;20501;-89
2022/08/10 05:34:25;;;;;;;6.47;3.08;;;18.00;90.50;;;;;;6131858;23;20013;-89
2022/08/10 05:36:52;;;;;;;5.72;2.75;;;18.10;90.40;;;;;;6156448;23;20065;-90
2022/08/10 05:39:20;;;;;;;8.02;2.80;;;18.10;90.30;;;;;;6132118;23;20013;-89
2022/08/10 05:41:50;;;;;;;7.50;2.88;;;18.20;90.10;;;;;;6156469;23;20009;-90
2022/08/10 05:44:16;;;;;;;6.78;2.75;;;18.30;90.00;;;;;;6131698;23;20445;-89
2022/08/10 05:46:42;;;;;;;6.40;2.90;;;18.40;89.60;;;;;;6156420;23;20016;-89
2022/08/10 05:49:07;;;;;;;6.35;2.70;;;18.40;88.90;;;;;;6131833;23;20205;-90
2022/08/10 05:51:33;;;;;;;3.22;2.50;;;18.60;88.40;;;;;;6156694;23;20076;-88
2022/08/10 05:53:59;;;;;;;4.22;2.50;;;18.70;88.10;;;;;;6156486;23;20033;-90
2022/08/10 05:56:26;;;;;;;5.28;2.53;;;18.80;87.50;;;;;;6131884;23;20561;-89
2022/08/10 05:58:52;;;;;;;3.00;2.70;;;18.80;87.50;;;;;;6131157;23;20017;-91
2022/08/10 06:01:20;;;;;;;5.85;2.85;;;18.90;87.10;;;;;;6131120;23;20663;-87
2022/08/10 06:03:52;;;;;;;8.55;3.10;;;19.00;86.70;;;;;;6130783;23;20032;-89
2022/08/10 06:06:20;;;;;;;2.85;2.55;;;19.10;86.20;;;;;;6131817;23;20435;-89
2022/08/10 06:08:49;;;;;;;5.63;2.35;;;19.10;86.00;;;;;;6158296;23;20005;-89
2022/08/10 06:11:17;;;;;;;6.47;2.92;;;19.10;86.00;;;;;;6156143;23;20013;-88
2022/08/10 06:16:31;;;;;;;4.32;2.63;;;19.30;85.70;;;;;;6155761;23;20453;-88
2022/08/10 06:18:58;;;;;;;9.43;2.90;;;19.30;85.20;;;;;;6130989;23;20101;-90
2022/08/10 06:21:25;;;;;;;5.72;2.60;;;19.40;85.40;;;;;;6156266;23;20073;-88
2022/08/10 06:23:52;;;;;;;2.95;2.45;;;19.40;85.90;;;;;;6131019;23;20010;-88
2022/08/10 06:26:18;;;;;;;7.95;2.67;;;19.50;84.40;;;;;;6157364;23;20088;-88
2022/08/10 06:28:52;;;;;;;5.95;2.63;;;19.60;84.60;;;;;;6156141;23;20041;-87
2022/08/10 06:31:19;;;;;;;7.07;3.10;;;19.70;84.30;;;;;;6131069;23;20664;-91
2022/08/10 06:33:46;;;;;;;4.70;2.47;;;19.80;84.10;;;;;;6155342;23;20334;-89
2022/08/10 06:36:13;;;;;;;5.47;2.65;;;20.00;83.10;;;;;;6156441;23;20001;-88
2022/08/10 06:38:42;;;;;;;4.63;2.65;;;20.10;82.40;;;;;;6156009;23;20009;-89
2022/08/10 06:41:19;;;;;;;4.63;2.58;;;20.10;81.80;;;;;;6131447;23;20009;-89
2022/08/10 06:43:50;;;;;;;4.70;2.88;;;20.20;81.60;;;;;;6156145;23;20030;-89
2022/08/10 06:46:20;;;;;;;7.18;2.78;;;20.30;81.50;;;;;;6155928;23;20013;-89
2022/08/10 06:48:51;;;;;;;5.63;2.95;;;20.30;82.10;;;;;;6157625;23;20036;-89
2022/08/10 06:51:28;;;;;;;5.72;2.42;;;20.50;81.10;;;;;;6155892;23;20036;-89
2022/08/10 06:53:58;;;;;;;4.95;2.85;;;20.60;80.40;;;;;;6155306;23;20183;-90
2022/08/10 06:56:26;;;;;;;2.70;2.42;;;20.60;80.30;;;;;;6130865;23;20012;-89
2022/08/10 06:58:57;;;;;;;4.63;2.25;;;20.60;79.70;;;;;;6130674;23;20005;-88
2022/08/10 07:01:32;;;;;;;7.47;2.42;;;20.60;79.40;;;;;;6156019;23;20001;-90
2022/08/10 07:04:14;;;;;;;8.32;2.67;;;20.70;79.90;;;;;;6155486;23;20004;-89
2022/08/10 07:06:44;;;;;;;3.28;2.58;;;20.80;79.10;;;;;;6155672;23;20005;-89
2022/08/10 07:09:15;;;;;;;7.22;3.03;;;20.90;78.50;;;;;;6129902;23;20124;-89
2022/08/10 07:11:44;;;;;;;5.47;2.60;;;20.90;77.60;;;;;;6130327;23;20048;-90
2022/08/10 07:14:12;;;;;;;4.72;2.70;;;20.90;78.30;;;;;;6155837;23;20006;-90
2022/08/10 07:16:43;;;;;;;5.82;3.08;;;21.00;78.60;;;;;;6155666;23;20016;-89
2022/08/10 07:19:10;;;;;;;6.97;2.88;;;21.00;79.30;;;;;;6131112;23;20017;-90
2022/08/10 07:21:41;;;;;;;2.83;2.15;;;21.00;77.40;;;;;;6155495;23;20044;-89
2022/08/10 07:24:12;;;;;;;3.75;2.60;;;21.10;77.20;;;;;;6130173;23;20012;-89
2022/08/10 07:26:43;;;;;;;4.05;2.67;;;21.20;77.10;;;;;;6155481;23;20013;-90
2022/08/10 07:29:09;;;;;;;11.32;3.20;;;21.20;78.20;;;;;;6155825;23;20060;-90
2022/08/10 07:31:36;;;;;;;3.50;2.78;;;21.30;77.10;;;;;;6155762;23;20010;-89
2022/08/10 07:34:05;;;;;;;5.30;2.30;;;21.30;77.50;;;;;;6130542;23;20014;-89
2022/08/10 07:37:09;;;;;;;6.57;2.33;;;21.40;77.10;;;;;;6155184;23;20045;-88
2022/08/10 07:39:42;;;;;;;7.97;2.83;;;21.50;75.90;;;;;;6155231;23;20022;-89
2022/08/10 07:42:10;;;;;;;10.57;2.88;;;21.50;75.90;;;;;;6130048;23;20338;-91
2022/08/10 07:44:39;;;;;;;7.70;2.83;;;21.60;75.90;;;;;;6130244;23;20477;-90
2022/08/10 07:47:09;;;;;;;9.35;2.97;;;21.70;75.50;;;;;;6130093;23;20017;-88
2022/08/10 07:49:38;;;;;;;6.82;2.50;;;21.70;75.30;;;;;;6156713;23;20343;-90
2022/08/10 07:52:09;;;;;;;3.53;2.30;;;21.80;75.10;;;;;;6130486;23;20085;-88
2022/08/10 07:54:41;;;;;;;6.85;2.47;;;21.80;75.10;;;;;;6154548;23;20017;-89
2022/08/10 07:57:12;;;;;;;9.80;2.00;;;22.00;75.20;;;;;;6156892;23;20444;-89
2022/08/10 07:59:44;;;;;;;11.48;2.90;;;22.00;73.40;;;;;;6130749;23;20017;-90
2022/08/10 08:02:24;;;;;;;8.57;2.45;;;22.10;74.50;;;;;;6130135;23;20052;-89
2022/08/10 08:05:07;;;;;;;2.97;2.20;;;22.20;73.10;;;;;;6154707;23;20001;-89
2022/08/10 08:07:35;;;;;;;9.52;2.72;;;22.20;73.50;;;;;;6130608;23;20032;-91
2022/08/10 08:10:15;;;;;;;2.65;2.30;;;22.20;72.70;;;;;;6130311;23;20422;-88
2022/08/10 08:13:04;;;;;;;5.38;2.80;;;22.20;73.00;;;;;;6156112;23;20010;-89
2022/08/10 08:15:32;;;;;;;6.78;2.95;;;22.40;73.00;;;;;;6130101;23;20002;-92
2022/08/10 08:18:01;;;;;;;5.03;2.30;;;22.40;72.00;;;;;;6130274;23;20013;-91
2022/08/10 08:20:27;;;;;;;8.90;2.90;;;22.50;72.20;;;;;;6129895;23;20010;-90
2022/08/10 08:22:54;;;;;;;8.27;2.55;;;22.60;72.30;;;;;;6155840;23;20430;-91
2022/08/10 08:25:21;;;;;;;4.35;2.20;;;22.60;71.20;;;;;;6129985;23;20009;-90
2022/08/10 08:27:52;;;;;;;6.97;2.30;;;22.80;71.60;;;;;;6154891;23;20087;-91
2022/08/10 08:30:20;;;;;;;8.52;2.80;;;22.90;70.30;;;;;;6154463;23;20346;-92
2022/08/10 08:32:47;;;;;;;8.07;3.20;;;23.00;70.50;;;;;;6154626;23;20013;-90
2022/08/10 08:39:00;;;;;;;2.78;1.73;;;24.20;66.00;;;;;;6156157;23;20025;-88
2022/08/10 08:41:41;;;;;;;5.53;2.05;;;26.30;62.00;;;;;;6129539;23;20005;-90
2022/08/10 08:44:34;;;;;;;4.78;1.75;;;27.10;59.10;;;;;;6130054;23;20001;-89
2022/08/10 08:47:03;;;;;;;13.27;2.20;;;27.50;58.40;;;;;;6129817;23;20017;-89
2022/08/10 08:50:06;;;;;;;8.20;2.25;;;27.80;57.90;;;;;;6130105;23;20508;-90
2022/08/10 08:53:10;;;;;;;2.42;1.98;;;28.50;57.10;;;;;;6130131;23;20044;-90
2022/08/10 08:55:54;;;;;;;2.35;1.90;;;29.10;55.80;;;;;;6081648;23;20013;-90
2022/08/10 08:58:42;;;;;;;8.50;2.30;;;29.10;54.80;;;;;;6129949;23;20060;-88
2022/08/10 09:01:13;;;;;;;2.95;2.30;;;28.60;54.90;;;;;;6155939;23;20085;-89
2022/08/10 09:03:42;;;;;;;4.38;2.25;;;28.10;54.90;;;;;;6129657;23;20029;-88
2022/08/10 09:06:26;;;;;;;5.43;2.08;;;27.70;56.40;;;;;;6129631;23;20431;-90
2022/08/10 09:08:57;;;;;;;3.17;1.85;;;28.50;56.00;;;;;;6154114;23;20497;-90
2022/08/10 09:11:58;;;;;;;3.83;2.13;;;28.90;54.40;;;;;;6130039;23;20025;-90
2022/08/10 09:14:46;;;;;;;8.13;2.30;;;28.80;54.20;;;;;;6155734;23;20002;-88
2022/08/10 09:17:31;;;;;;;4.43;2.25;;;28.80;53.30;;;;;;6154617;23;20099;-90
2022/08/10 09:20:22;;;;;;;5.68;2.80;;;28.80;53.70;;;;;;6154027;23;20009;-89
2022/08/10 09:22:54;;;;;;;;;;;28.40;55.00;;;;;;6130216;23;20002;-89
2022/08/10 09:25:23;;;;;;;11.15;2.42;;;29.20;53.70;;;;;;6153832;23;19960;-90
2022/08/10 09:28:04;;;;;;;7.57;2.08;;;29.80;53.80;;;;;;6153647;23;20017;-90
2022/08/10 09:31:02;;;;;;;11.13;2.35;;;29.30;52.50;;;;;;6130550;23;20013;-91
2022/08/10 09:33:37;;;;;;;4.65;2.20;;;28.80;53.70;;;;;;6130789;23;20014;-90
2022/08/10 09:36:24;;;;;;;6.22;2.50;;;29.00;53.60;;;;;;6154929;23;20033;-91
2022/08/10 09:39:04;;;;;;;4.13;2.47;;;28.90;53.40;;;;;;6131268;23;20092;-89
2022/08/10 09:42:09;;;;;;;2.22;1.77;;;29.10;51.20;;;;;;6131870;23;20013;-91
2022/08/10 09:44:43;;;;;;;7.72;2.25;;;29.40;51.40;;;;;;6131413;23;20353;-90
2022/08/10 09:47:12;;;;;;;7.20;2.20;;;29.10;52.10;;;;;;6131480;23;20335;-89
2022/08/10 09:50:16;;;;;;;4.18;2.10;;;28.90;50.30;;;;;;6131985;23;20009;-90
2022/08/10 09:53:15;;;;;;;6.43;2.22;;;28.60;50.70;;;;;;6131634;23;20016;-90
2022/08/10 09:56:15;;;;;;;4.70;2.10;;;28.20;51.50;;;;;;6158217;23;20021;-93
2022/08/10 09:59:02;;;;;;;5.47;2.40;;;28.70;50.90;;;;;;6131495;23;20010;-90
2022/08/10 10:01:48;;;;;;;4.70;2.00;;;28.70;51.00;;;;;;6158246;23;20006;-90
2022/08/10 10:04:31;;;;;;;5.57;2.40;;;28.20;50.50;;;;;;6131593;23;20006;-93
2022/08/10 10:07:00;;;;;;;5.68;1.98;;;28.40;50.50;;;;;;6156270;23;20093;-90
2022/08/10 10:10:03;;;;;;;3.50;2.08;;;28.00;52.10;;;;;;6132042;23;20028;-90
2022/08/10 10:12:46;;;;;;;2.67;1.95;;;27.80;50.50;;;;;;6131758;23;20014;-89
2022/08/10 10:15:24;;;;;;;4.97;2.05;;;27.50;51.00;;;;;;6131511;23;20433;-93
2022/08/10 10:18:14;;;;;;;4.45;2.20;;;27.80;50.90;;;;;;6131636;23;20009;-89
2022/08/10 10:20:46;;;;;;;4.50;2.00;;;27.80;50.00;;;;;;6156279;23;20032;-91
2022/08/10 10:23:49;;;;;;;17.40;2.60;;;28.10;50.60;;;;;;6131801;23;20474;-90
2022/08/10 10:26:42;;;;;;;7.63;2.25;;;28.10;51.70;;;;;;6157498;23;20084;-90
2022/08/10 10:29:28;;;;;;;10.32;2.20;;;28.50;51.10;;;;;;6156081;23;20422;-90
2022/08/10 10:32:07;;;;;;;5.20;2.25;;;28.50;49.80;;;;;;6131917;23;20020;-89
2022/08/10 10:35:08;;;;;;;16.42;2.55;;;28.80;50.10;;;;;;6157649;23;20005;-91
2022/08/10 10:37:36;;;;;;;5.35;2.03;;;28.70;49.70;;;;;;6111689;23;20014;-91
2022/08/10 10:40:03;;;;;;;15.88;2.60;;;28.40;49.90;;;;;;6131591;23;20013;-92
2022/08/10 10:42:49;;;;;;;10.35;1.95;;;28.50;50.90;;;;;;6131689;23;20403;-89
2022/08/10 10:45:19;;;;;;;10.65;1.80;;;28.80;49.80;;;;;;6157130;23;20001;-91
2022/08/10 10:48:14;;;;;;;6.05;1.63;;;28.80;48.70;;;;;;6157744;23;20002;-91
2022/08/10 10:51:06;;;;;;;4.72;2.15;;;28.70;49.80;;;;;;6156542;23;20009;-91
2022/08/10 10:53:35;;;;;;;8.05;2.38;;;28.50;50.10;;;;;;6156023;23;20056;-91
2022/08/10 10:56:23;;;;;;;4.82;1.92;;;29.00;49.80;;;;;;6155927;23;20013;-90
2022/08/10 10:59:01;;;;;;;32.88;3.10;;;29.10;49.30;;;;;;6131249;23;20036;-90
2022/08/10 11:01:56;;;;;;;4.55;2.30;;;29.10;49.60;;;;;;6155966;23;20005;-91
2022/08/10 11:04:48;;;;;;;7.68;1.80;;;29.20;48.20;;;;;;6130815;23;20009;-90
2022/08/10 11:07:27;;;;;;;3.22;2.05;;;29.20;47.80;;;;;;6155587;23;20096;-90
2022/08/10 11:10:00;;;;;;;2.80;1.73;;;29.60;47.20;;;;;;6157431;23;20346;-92
2022/08/10 11:12:38;;;;;;;2.45;1.80;;;29.60;46.80;;;;;;6131342;23;20068;-90
2022/08/10 11:15:19;;;;;;;6.10;2.25;;;29.80;46.80;;;;;;6155924;23;20005;-89
2022/08/10 11:17:51;;;;;;;4.35;1.70;;;29.90;46.80;;;;;;6156015;23;20095;-91
2022/08/10 11:20:40;;;;;;;2.20;1.77;;;30.00;47.60;;;;;;6131462;23;20074;-89
2022/08/10 11:23:19;;;;;;;9.18;2.25;;;30.30;46.50;;;;;;6155614;23;20100;-89
2022/08/10 11:26:16;;;;;;;6.65;2.00;;;30.50;45.60;;;;;;6155803;23;20006;-92
2022/08/10 11:28:50;;;;;;;6.95;1.75;;;29.50;46.70;;;;;;6130955;23;20011;-89
2022/08/10 11:31:18;;;;;;;4.55;1.80;;;29.10;48.00;;;;;;6132063;23;20009;-89
2022/08/10 11:33:56;;;;;;;4.63;1.70;;;29.60;47.10;;;;;;6130913;23;20505;-89
2022/08/10 11:36:59;;;;;;;7.47;1.95;;;30.20;46.00;;;;;;6130523;23;20434;-89
2022/08/10 11:39:25;;;;;;;4.25;1.88;;;30.50;45.70;;;;;;6155451;23;20016;-90
2022/08/10 11:41:59;;;;;;;4.10;2.00;;;30.30;45.60;;;;;;6155013;23;20006;-91
2022/08/10 11:44:56;;;;;;;9.95;2.10;;;30.60;45.70;;;;;;6154909;23;20009;-93
2022/08/10 11:47:32;;;;;;;3.78;1.90;;;30.50;45.60;;;;;;6130812;23;20095;-90
2022/08/10 11:50:16;;;;;;;3.60;1.95;;;29.80;45.90;;;;;;6130744;23;20005;-89
2022/08/10 11:53:13;;;;;;;8.07;2.42;;;30.30;46.30;;;;;;6154932;23;20017;-90
2022/08/10 11:55:41;;;;;;;8.20;1.98;;;30.20;45.90;;;;;;6155351;23;20092;-92
2022/08/10 12:01:07;;;;;;;5.43;2.15;;;29.60;46.60;;;;;;6155454;23;20044;-89
2022/08/10 12:03:37;;;;;;;2.67;1.75;;;29.50;46.20;;;;;;6156926;23;20013;-91
2022/08/10 12:06:04;;;;;;;4.75;2.08;;;29.60;47.00;;;;;;6155641;23;20500;-90
2022/08/10 12:08:31;;;;;;;2.45;2.25;;;29.10;46.10;;;;;;6155303;23;20021;-91
2022/08/10 12:10:58;;;;;;;6.55;2.05;;;29.50;46.00;;;;;;6155465;23;20212;-90
2022/08/10 12:13:28;;;;;;;7.38;2.30;;;29.70;46.40;;;;;;6154659;23;20020;-91
2022/08/10 12:16:11;;;;;;;4.20;1.88;;;30.30;45.40;;;;;;6154807;23;20016;-88
2022/08/10 12:19:10;;;;;;;7.75;2.20;;;30.40;44.90;;;;;;6156211;23;20669;-91
2022/08/10 12:21:45;;;;;;;4.10;2.08;;;30.00;46.00;;;;;;6130890;23;20009;-90
2022/08/10 12:24:22;;;;;;;3.30;2.10;;;29.50;45.20;;;;;;6130280;23;20104;-92
2022/08/10 12:26:57;;;;;;;3.67;1.98;;;29.20;45.40;;;;;;6156587;23;20071;-92
2022/08/10 12:29:31;;;;;;;8.40;2.30;;;29.00;46.30;;;;;;6155613;23;20312;-90
2022/08/10 12:32:26;;;;;;;5.50;2.30;;;29.00;46.00;;;;;;6156733;23;20053;-91
2022/08/10 12:35:19;;;;;;;6.75;2.38;;;29.10;46.80;;;;;;6154905;23;20041;-88
2022/08/10 12:38:09;;;;;;;6.05;2.13;;;29.50;46.00;;;;;;6130275;23;20032;-90
2022/08/10 12:40:47;;;;;;;5.93;2.50;;;29.40;46.00;;;;;;6130560;23;20092;-92
2022/08/10 12:43:31;;;;;;;5.40;2.30;;;29.30;45.60;;;;;;6130556;23;20005;-89
2022/08/10 12:46:14;;;;;;;4.20;1.73;;;29.40;45.40;;;;;;6130058;23;20013;-90
2022/08/10 12:48:55;;;;;;;6.05;2.30;;;29.60;45.30;;;;;;6154573;23;20020;-91
2022/08/10 12:51:29;;;;;;;5.53;2.40;;;29.50;43.90;;;;;;6154988;23;20020;-91
2022/08/10 12:54:07;;;;;;;4.13;2.25;;;29.70;44.50;;;;;;6130167;23;20015;-90
2022/08/10 12:56:36;;;;;;;3.45;1.85;;;30.20;44.40;;;;;;6130409;23;20013;-91
2022/08/10 12:59:08;;;;;;;3.25;2.13;;;30.60;43.90;;;;;;6130567;23;20033;-89
2022/08/10 13:01:36;;;;;;;5.55;2.42;;;30.60;43.90;;;;;;6130887;23;20415;-91
2022/08/10 13:04:09;;;;;;;8.05;2.05;;;30.90;44.00;;;;;;6129723;23;20012;-91
2022/08/10 13:06:42;;;;;;;3.20;2.20;;;30.80;44.10;;;;;;6154806;23;20392;-91
2022/08/10 13:09:08;;;;;;;4.93;1.90;;;31.10;44.10;;;;;;6130131;23;20024;-92
2022/08/10 13:11:38;;;;;;;4.13;2.33;;;31.30;43.40;;;;;;6131087;23;20055;-91
2022/08/10 13:14:14;;;;;;;5.30;2.40;;;30.90;43.70;;;;;;6158638;23;20076;-92
2022/08/10 13:16:42;;;;;;;5.60;2.08;;;31.50;44.30;;;;;;6157064;23;20110;-94
2022/08/10 13:19:27;;;;;;;3.47;2.33;;;32.10;42.70;;;;;;6157248;23;20005;-93
2022/08/10 13:21:56;;;;;;;6.88;2.20;;;31.50;42.10;;;;;;6132333;23;20010;-90
2022/08/10 13:24:32;;;;;;;3.25;2.28;;;31.50;41.90;;;;;;6156762;23;20005;-92
2022/08/10 13:27:10;;;;;;;2.45;1.90;;;31.30;42.10;;;;;;6156608;23;20327;-92
2022/08/10 13:29:42;;;;;;;4.28;2.10;;;31.00;43.90;;;;;;6156828;23;20368;-93
2022/08/10 13:32:09;;;;;;;5.20;2.03;;;31.10;42.50;;;;;;6131895;23;20009;-92
2022/08/10 13:34:37;;;;;;;4.82;2.13;;;31.50;42.30;;;;;;6131867;23;20010;-93
2022/08/10 13:37:08;;;;;;;6.97;2.20;;;31.60;42.10;;;;;;6131722;23;20024;-90
2022/08/10 13:40:15;;;;;;;6.05;2.00;;;31.70;42.20;;;;;;6156575;23;20014;-94
2022/08/10 13:42:42;;;;;;;5.50;2.00;;;31.50;42.40;;;;;;6157262;23;20005;-94